createdAt,value
2022-09-20T00:00:48.744Z,57.20
2022-09-20T00:02:52.695Z,57.27
2022-09-20T00:04:54.441Z,57.28
2022-09-20T00:06:58.834Z,57.38
2022-09-20T00:09:01.375Z,57.28
2022-09-20T00:11:18.531Z,57.40
2022-09-20T00:13:20.167Z,57.46
2022-09-20T00:15:21.723Z,57.37
2022-09-20T00:17:23.352Z,57.64
2022-09-20T00:19:25.625Z,57.31
2022-09-20T00:21:29.809Z,57.34
2022-09-20T00:23:32.751Z,57.26
2022-09-20T00:25:34.343Z,57.36
2022-09-20T00:27:36.074Z,57.25
2022-09-20T00:29:37.883Z,57.36
2022-09-20T00:31:44.951Z,57.52
2022-09-20T00:34:05.123Z,57.26
2022-09-20T00:36:06.866Z,57.39
2022-09-20T00:38:09.153Z,57.46
2022-09-20T00:40:15.685Z,57.41
2022-09-20T00:42:17.476Z,57.55
2022-09-20T00:45:06.918Z,57.29
2022-09-20T00:47:23.133Z,57.52
2022-09-20T00:49:28.557Z,57.48
2022-09-20T00:51:37.155Z,57.51
2022-09-20T00:53:42.089Z,57.35
2022-09-20T00:55:51.220Z,57.60
2022-09-20T00:57:54.494Z,57.36
2022-09-20T00:59:56.644Z,57.58
2022-09-20T01:02:05.606Z,57.65
2022-09-20T01:04:08.719Z,57.63
2022-09-20T01:06:13.918Z,57.79
2022-09-20T01:08:15.532Z,57.98
2022-09-20T01:10:17.523Z,57.50
2022-09-20T01:12:26.894Z,57.55
2022-09-20T01:14:28.437Z,57.41
2022-09-20T01:16:35.985Z,57.74
2022-09-20T01:18:39.469Z,57.76
2022-09-20T01:20:44.442Z,57.72
2022-09-20T01:22:59.496Z,57.63
2022-09-20T01:25:16.996Z,57.66
2022-09-20T01:27:44.016Z,57.73
2022-09-20T01:29:53.950Z,57.73
2022-09-20T01:32:01.814Z,57.70
2022-09-20T01:34:37.312Z,57.83
2022-09-20T01:36:57.198Z,57.94
2022-09-20T01:39:16.123Z,57.87
2022-09-20T01:41:37.354Z,57.71
2022-09-20T01:43:55.159Z,57.69
2022-09-20T01:46:03.540Z,57.76
2022-09-20T01:48:16.045Z,57.68
2022-09-20T01:50:41.939Z,58.01
2022-09-20T01:53:02.735Z,57.83
2022-09-20T01:55:38.916Z,57.85
2022-09-20T01:58:04.596Z,57.82
2022-09-20T02:00:11.934Z,57.69
2022-09-20T02:03:05.805Z,58.12
2022-09-20T02:05:34.668Z,58.01
2022-09-20T02:08:04.072Z,57.77
2022-09-20T02:10:27.205Z,58.02
2022-09-20T02:12:50.038Z,58.02
2022-09-20T02:14:56.456Z,57.93
2022-09-20T02:17:11.831Z,57.83
2022-09-20T02:19:34.183Z,58.09
2022-09-20T02:21:45.700Z,58.16
2022-09-20T02:24:26.428Z,57.92
2022-09-20T02:26:38.027Z,58.12
2022-09-20T02:29:11.879Z,58.18
2022-09-20T02:31:28.424Z,58.07
2022-09-20T02:33:45.963Z,57.94
2022-09-20T02:36:17.579Z,58.24
2022-09-20T02:38:50.033Z,58.04
2022-09-20T02:41:19.092Z,58.26
2022-09-20T02:43:49.098Z,58.10
2022-09-20T02:46:11.262Z,58.02
2022-09-20T02:48:17.949Z,58.04
2022-09-20T02:50:38.631Z,58.30
2022-09-20T02:52:57.379Z,58.24
2022-09-20T02:55:17.981Z,58.25
2022-09-20T02:57:38.265Z,58.44
2022-09-20T02:59:48.721Z,58.17
2022-09-20T03:02:15.143Z,58.41
2022-09-20T03:04:36.036Z,58.07
2022-09-20T03:06:55.217Z,58.22
2022-09-20T03:09:42.916Z,58.28
2022-09-20T03:11:56.987Z,58.28
2022-09-20T03:14:35.325Z,58.30
2022-09-20T03:16:58.469Z,58.43
2022-09-20T03:19:34.001Z,58.18
2022-09-20T03:22:06.783Z,58.27
2022-09-20T03:24:28.865Z,58.23
2022-09-20T03:26:55.759Z,58.27
2022-09-20T03:29:03.578Z,58.39
2022-09-20T03:31:09.206Z,58.33
2022-09-20T03:33:19.313Z,58.11
2022-09-20T03:35:32.829Z,58.27
2022-09-20T03:37:53.008Z,58.08
2022-09-20T03:40:21.684Z,58.19
2022-09-20T03:42:25.794Z,58.10
2022-09-20T03:44:58.713Z,58.25
2022-09-20T03:47:42.919Z,58.10
2022-09-20T03:50:02.271Z,58.06
2022-09-20T03:52:46.006Z,58.03
2022-09-20T03:55:23.047Z,57.99
2022-09-20T03:57:50.589Z,58.17
2022-09-20T04:00:20.836Z,58.05
2022-09-20T04:02:48.290Z,58.04
2022-09-20T04:04:55.813Z,58.04
2022-09-20T04:07:12.406Z,57.97
2022-09-20T04:09:22.883Z,57.83
2022-09-20T04:12:01.416Z,57.79
2022-09-20T04:14:16.853Z,57.99
2022-09-20T04:16:41.451Z,57.93
2022-09-20T04:19:08.091Z,58.07
2022-09-20T04:21:15.582Z,57.77
2022-09-20T04:23:46.721Z,57.95
2022-09-20T04:25:51.207Z,57.88
2022-09-20T04:28:04.568Z,57.97
2022-09-20T04:30:17.235Z,57.97
2022-09-20T04:32:28.977Z,57.98
2022-09-20T04:34:59.724Z,57.96
2022-09-20T04:37:05.040Z,57.91
2022-09-20T04:39:34.023Z,57.81
2022-09-20T04:42:09.919Z,57.79
2022-09-20T04:44:22.128Z,57.90
2022-09-20T04:46:58.014Z,58.17
2022-09-20T04:49:27.171Z,58.22
2022-09-20T04:51:54.411Z,58.02
2022-09-20T04:54:20.281Z,58.33
2022-09-20T04:56:32.771Z,58.11
2022-09-20T04:58:49.402Z,58.05
2022-09-20T05:01:19.693Z,58.12
2022-09-20T05:03:40.461Z,58.23
2022-09-20T05:06:19.297Z,58.18
2022-09-20T05:08:44.043Z,58.16
2022-09-20T05:10:57.897Z,58.21
2022-09-20T05:13:15.003Z,58.35
2022-09-20T05:15:38.001Z,58.51
2022-09-20T05:17:55.179Z,58.45
2022-09-20T05:20:25.401Z,58.34
2022-09-20T05:22:42.089Z,58.39
2022-09-20T05:25:14.884Z,58.43
2022-09-20T05:27:16.504Z,58.43
2022-09-20T05:29:31.723Z,58.45
2022-09-20T05:32:03.357Z,58.46
2022-09-20T05:34:14.472Z,58.50
2022-09-20T05:36:34.899Z,58.57
2022-09-20T05:38:48.639Z,58.50
2022-09-20T05:41:15.903Z,58.72
2022-09-20T05:43:28.701Z,58.54
2022-09-20T05:45:48.017Z,58.57
2022-09-20T05:48:18.201Z,58.65
2022-09-20T05:50:44.426Z,58.80
2022-09-20T05:52:51.828Z,58.69
2022-09-20T05:55:18.330Z,58.59
2022-09-20T05:57:41.484Z,58.90
2022-09-20T05:59:45.899Z,58.62
2022-09-20T06:01:53.284Z,58.67
2022-09-20T06:04:21.458Z,58.71
2022-09-20T06:06:32.736Z,58.69
2022-09-20T06:09:03.870Z,58.70
2022-09-20T06:11:24.485Z,58.74
2022-09-20T06:14:03.804Z,58.77
2022-09-20T06:16:07.765Z,58.73
2022-09-20T06:18:26.032Z,58.85
2022-09-20T06:20:43.329Z,58.79
2022-09-20T06:22:49.193Z,58.79
2022-09-20T06:25:10.801Z,59.06
2022-09-20T06:27:24.381Z,58.78
2022-09-20T06:29:33.108Z,58.88
2022-09-20T06:31:34.854Z,58.83
2022-09-20T06:33:57.506Z,59.02
2022-09-20T06:36:29.710Z,59.20
2022-09-20T06:39:09.530Z,59.13
2022-09-20T06:41:28.382Z,59.08
2022-09-20T06:43:31.486Z,59.07
2022-09-20T06:45:33.591Z,59.17
2022-09-20T06:47:38.686Z,59.27
2022-09-20T06:49:46.646Z,59.16
2022-09-20T06:51:50.792Z,59.36
2022-09-20T06:53:54.339Z,59.26
2022-09-20T06:55:56.718Z,59.13
2022-09-20T06:57:58.394Z,59.20
2022-09-20T07:00:00.403Z,59.19
2022-09-20T07:02:02.281Z,59.45
2022-09-20T07:04:06.133Z,59.51
2022-09-20T07:06:09.473Z,59.26
2022-09-20T07:08:10.964Z,59.67
2022-09-20T07:10:12.844Z,59.67
2022-09-20T07:12:14.842Z,59.74
2022-09-20T07:14:16.750Z,59.54
2022-09-20T07:16:18.542Z,59.45
2022-09-20T07:18:20.111Z,59.61
2022-09-20T07:20:21.980Z,59.68
2022-09-20T07:22:23.847Z,59.77
2022-09-20T07:24:25.559Z,59.68
2022-09-20T07:26:29.172Z,59.88
2022-09-20T07:28:34.757Z,59.89
2022-09-20T07:30:36.361Z,59.95
2022-09-20T07:32:37.919Z,59.99
2022-09-20T07:34:39.422Z,59.96
2022-09-20T07:36:41.108Z,60.12
2022-09-20T07:38:46.851Z,60.00
2022-09-20T07:41:00.643Z,60.28
2022-09-20T07:43:02.118Z,60.10
2022-09-20T07:45:04.099Z,60.10
2022-09-20T07:47:06.434Z,59.94
2022-09-20T07:49:07.947Z,60.07
2022-09-20T07:51:11.767Z,60.02
2022-09-20T07:53:13.380Z,59.82
2022-09-20T07:55:14.959Z,59.80
2022-09-20T07:57:16.800Z,59.73
2022-09-20T07:59:18.527Z,59.44
2022-09-20T08:01:21.843Z,59.58
2022-09-20T08:03:24.429Z,59.30
2022-09-20T08:05:27.166Z,59.28
2022-09-20T08:07:29.326Z,59.30
2022-09-20T08:09:30.877Z,59.25
2022-09-20T08:11:33.166Z,59.14
2022-09-20T08:16:06.553Z,59.33
2022-09-20T08:18:09.446Z,59.15
2022-09-20T08:20:11.428Z,59.24
2022-09-20T08:22:13.952Z,58.99
2022-09-20T08:24:17.362Z,59.11
2022-09-20T08:26:22.670Z,58.78
2022-09-20T08:28:24.240Z,58.72
2022-09-20T08:30:27.843Z,58.99
2022-09-20T08:32:32.373Z,58.62
2022-09-20T08:34:34.019Z,58.74
2022-09-20T08:36:38.732Z,58.77
2022-09-20T08:41:25.304Z,58.65
2022-09-20T08:43:30.227Z,58.60
2022-09-20T08:45:35.097Z,58.77
2022-09-20T08:47:45.360Z,58.35
2022-09-20T08:49:47.868Z,58.38
2022-09-20T08:51:50.783Z,58.45
2022-09-20T08:53:55.752Z,58.38
2022-09-20T08:55:59.914Z,58.42
2022-09-20T08:58:06.164Z,58.45
2022-09-20T09:00:19.400Z,58.30
2022-09-20T09:02:21.668Z,58.29
2022-09-20T09:04:24.922Z,58.27
2022-09-20T09:06:27.085Z,58.20
2022-09-20T09:08:37.611Z,58.32
2022-09-20T09:10:43.623Z,58.34
2022-09-20T09:12:48.724Z,58.49
2022-09-20T09:14:57.326Z,58.55
2022-09-20T09:17:00.808Z,58.59
2022-09-20T09:19:36.320Z,58.63
2022-09-20T09:21:43.338Z,58.60
2022-09-20T09:23:51.583Z,58.45
2022-09-20T09:25:55.410Z,58.53
2022-09-20T09:28:00.224Z,58.54
2022-09-20T09:30:02.672Z,58.58
2022-09-20T09:32:31.077Z,58.78
2022-09-20T09:34:35.258Z,58.57
2022-09-20T09:36:45.838Z,58.73
2022-09-20T09:38:49.333Z,58.66
2022-09-20T09:40:56.496Z,58.78
2022-09-20T09:43:04.076Z,58.82
2022-09-20T09:45:30.549Z,58.98
2022-09-20T09:47:37.654Z,58.79
2022-09-20T09:49:59.821Z,58.71
2022-09-20T09:52:11.849Z,58.56
2022-09-20T09:54:19.861Z,58.43
2022-09-20T09:56:51.955Z,58.49
2022-09-20T09:59:13.878Z,58.47
2022-09-20T10:01:55.819Z,58.70
2022-09-20T10:04:06.664Z,58.76
2022-09-20T10:06:27.198Z,58.80
2022-09-20T10:08:45.733Z,58.55
2022-09-20T10:11:07.200Z,58.51
2022-09-20T10:13:23.702Z,58.39
2022-09-20T10:15:38.188Z,58.70
2022-09-20T10:17:50.740Z,58.72
2022-09-20T10:20:21.092Z,57.94
2022-09-20T10:22:29.127Z,57.30
2022-09-20T10:24:43.087Z,56.86
2022-09-20T10:27:10.004Z,56.39
2022-09-20T10:29:26.119Z,55.68
2022-09-20T10:31:49.862Z,55.59
2022-09-20T10:34:23.611Z,54.89
2022-09-20T10:36:46.456Z,54.73
2022-09-20T10:39:03.022Z,54.98
2022-09-20T10:41:35.248Z,55.23
2022-09-20T10:44:06.759Z,54.99
2022-09-20T10:46:31.800Z,54.71
2022-09-20T10:48:48.522Z,54.67
2022-09-20T10:51:04.239Z,54.61
2022-09-20T10:53:28.032Z,54.50
2022-09-20T10:55:42.120Z,54.44
2022-09-20T10:57:56.090Z,54.67
2022-09-20T11:00:18.311Z,54.08
2022-09-20T11:02:40.781Z,53.75
2022-09-20T11:05:11.174Z,54.21
2022-09-20T11:07:36.799Z,54.11
2022-09-20T11:09:44.684Z,54.42
2022-09-20T11:11:55.496Z,54.82
2022-09-20T11:14:03.409Z,54.92
2022-09-20T11:16:33.178Z,55.10
2022-09-20T11:18:41.339Z,55.50
2022-09-20T11:20:55.643Z,54.92
2022-09-20T11:23:00.405Z,55.00
2022-09-20T11:25:19.428Z,54.96
2022-09-20T11:27:29.626Z,54.80
2022-09-20T11:29:44.417Z,54.08
2022-09-20T11:31:50.638Z,54.14
2022-09-20T11:33:58.097Z,54.04
2022-09-20T11:36:04.348Z,53.63
2022-09-20T11:38:17.630Z,53.26
2022-09-20T11:40:25.242Z,53.71
2022-09-20T11:42:35.880Z,53.40
2022-09-20T11:44:41.162Z,53.81
2022-09-20T11:46:48.743Z,53.36
2022-09-20T11:49:01.287Z,53.22
2022-09-20T11:51:21.949Z,53.11
2022-09-20T11:53:43.304Z,53.46
2022-09-20T11:56:08.262Z,53.47
2022-09-20T11:58:16.825Z,53.38
2022-09-20T12:00:30.889Z,53.60
2022-09-20T12:02:49.680Z,53.74
2022-09-20T12:04:54.456Z,53.56
2022-09-20T12:07:10.473Z,53.40
2022-09-20T12:09:34.956Z,52.77
2022-09-20T12:11:39.155Z,53.27
2022-09-20T12:13:51.797Z,53.13
2022-09-20T12:15:59.926Z,52.71
2022-09-20T12:18:09.397Z,51.91
2022-09-20T12:20:33.131Z,51.52
2022-09-20T12:22:34.824Z,51.55
2022-09-20T12:24:45.290Z,51.17
2022-09-20T12:26:49.502Z,50.52
2022-09-20T12:28:56.421Z,50.17
2022-09-20T12:31:26.456Z,49.17
2022-09-20T12:34:09.316Z,49.22
2022-09-20T12:36:17.883Z,49.39
2022-09-20T12:38:30.443Z,49.45
2022-09-20T12:40:32.567Z,49.98
2022-09-20T12:42:35.195Z,50.31
2022-09-20T12:44:40.972Z,50.37
2022-09-20T12:46:52.736Z,50.13
2022-09-20T12:49:41.919Z,49.97
2022-09-20T12:52:10.403Z,49.66
2022-09-20T12:54:13.980Z,49.60
2022-09-20T12:56:28.275Z,49.30
2022-09-20T12:58:48.343Z,48.77
2022-09-20T13:00:56.042Z,48.29
2022-09-20T13:02:59.943Z,48.32
2022-09-20T13:05:01.765Z,48.35
2022-09-20T13:07:43.554Z,47.57
2022-09-20T13:09:48.404Z,48.16
2022-09-20T13:11:54.188Z,47.87
2022-09-20T13:14:09.326Z,47.54
2022-09-20T13:16:22.739Z,47.52
2022-09-20T13:18:26.344Z,47.84
2022-09-20T13:20:31.533Z,47.55
2022-09-20T13:22:43.475Z,47.60
2022-09-20T13:24:47.838Z,47.46
2022-09-20T13:26:51.975Z,47.18
2022-09-20T13:28:59.310Z,47.15
2022-09-20T13:31:23.290Z,47.16
2022-09-20T13:33:25.541Z,47.16
2022-09-20T13:35:32.464Z,47.20
2022-09-20T13:37:35.694Z,46.80
2022-09-20T13:39:37.656Z,46.65
2022-09-20T13:41:39.440Z,46.44
2022-09-20T13:43:46.645Z,46.47
2022-09-20T13:45:53.881Z,46.53
2022-09-20T13:47:58.649Z,46.56
2022-09-20T13:50:17.744Z,46.56
2022-09-20T13:52:25.011Z,46.38
2022-09-20T13:54:31.780Z,46.36
2022-09-20T13:56:33.888Z,46.24
2022-09-20T13:58:37.252Z,46.35
2022-09-20T14:00:47.826Z,45.59
2022-09-20T14:02:50.305Z,45.47
2022-09-20T14:04:55.314Z,44.43
2022-09-20T14:07:01.591Z,44.39
2022-09-20T14:09:10.668Z,44.27
2022-09-20T14:11:21.397Z,44.25
2022-09-20T14:13:23.068Z,44.20
2022-09-20T14:15:27.032Z,43.91
2022-09-20T14:17:36.490Z,43.53
2022-09-20T14:19:41.326Z,43.95
2022-09-20T14:21:44.373Z,43.83
2022-09-20T14:23:54.726Z,42.85
2022-09-20T14:26:06.587Z,42.51
2022-09-20T14:28:19.932Z,42.45
2022-09-20T14:30:35.266Z,42.13
2022-09-20T14:32:44.881Z,42.66
2022-09-20T14:35:01.720Z,41.56
2022-09-20T14:37:09.842Z,42.53
2022-09-20T14:39:16.350Z,42.87
2022-09-20T14:41:28.995Z,41.74
2022-09-20T14:43:36.129Z,42.52
2022-09-20T14:45:43.269Z,42.20
2022-09-20T14:48:11.838Z,42.71
2022-09-20T14:50:31.507Z,42.44
2022-09-20T14:52:38.587Z,42.88
2022-09-20T14:54:41.210Z,42.91
2022-09-20T14:56:54.856Z,42.71
2022-09-20T14:59:27.086Z,42.35
2022-09-20T15:01:28.892Z,42.73
2022-09-20T15:03:34.023Z,42.89
2022-09-20T15:05:50.032Z,43.08
2022-09-20T15:07:56.801Z,42.96
2022-09-20T15:09:58.644Z,42.84
2022-09-20T15:12:06.096Z,43.10
2022-09-20T15:14:11.508Z,43.35
2022-09-20T15:16:17.355Z,43.28
2022-09-20T15:18:26.771Z,43.47
2022-09-20T15:20:28.725Z,43.34
2022-09-20T15:22:32.140Z,43.38
2022-09-20T15:24:33.734Z,43.53
2022-09-20T15:26:35.631Z,43.51
2022-09-20T15:28:37.246Z,43.52
2022-09-20T15:30:40.539Z,43.73
2022-09-20T15:32:46.051Z,43.91
2022-09-20T15:34:47.708Z,44.18
2022-09-20T15:36:50.706Z,44.00
2022-09-20T15:38:54.131Z,44.17
2022-09-20T15:40:55.969Z,43.93
2022-09-20T15:43:00.064Z,43.84
2022-09-20T15:45:01.670Z,43.98
2022-09-20T15:47:04.550Z,43.90
2022-09-20T15:49:06.767Z,43.92
2022-09-20T15:51:11.347Z,43.89
2022-09-20T15:53:12.963Z,43.76
2022-09-20T15:55:14.688Z,43.77
2022-09-20T15:57:16.187Z,44.11
2022-09-20T15:59:23.309Z,43.72
2022-09-20T16:01:32.930Z,44.16
2022-09-20T16:03:36.002Z,43.94
2022-09-20T16:05:37.914Z,44.31
2022-09-20T16:07:39.745Z,44.18
2022-09-20T16:09:41.223Z,44.54
2022-09-20T16:11:42.880Z,44.35
2022-09-20T16:13:44.551Z,44.64
2022-09-20T16:15:53.943Z,44.73
2022-09-20T16:18:13.841Z,44.94
2022-09-20T16:20:15.547Z,44.98
2022-09-20T16:22:19.375Z,45.00
2022-09-20T16:24:30.037Z,45.44
2022-09-20T16:26:34.602Z,45.70
2022-09-20T16:28:38.496Z,45.77
2022-09-20T16:30:40.234Z,45.98
2022-09-20T16:32:42.948Z,46.19
2022-09-20T16:34:45.518Z,46.31
2022-09-20T16:36:49.105Z,45.95
2022-09-20T16:38:52.054Z,46.23
2022-09-20T16:40:55.678Z,46.25
2022-09-20T16:42:58.795Z,46.38
2022-09-20T16:45:00.559Z,46.43
2022-09-20T16:47:03.943Z,46.44
2022-09-20T16:49:09.581Z,46.89
2022-09-20T16:51:11.920Z,46.88
2022-09-20T16:53:13.485Z,46.83
2022-09-20T16:55:15.097Z,47.22
2022-09-20T16:57:16.982Z,47.17
2022-09-20T16:59:22.481Z,47.13
2022-09-20T17:01:24.439Z,47.45
2022-09-20T17:03:27.156Z,47.23
2022-09-20T17:05:29.461Z,47.34
2022-09-20T17:07:31.440Z,47.41
2022-09-20T17:09:32.969Z,47.51
2022-09-20T17:11:37.669Z,47.62
2022-09-20T17:13:40.675Z,47.96
2022-09-20T17:15:43.409Z,47.89
2022-09-20T17:17:45.783Z,48.12
2022-09-20T17:19:47.443Z,47.89
2022-09-20T17:21:50.999Z,48.11
2022-09-20T17:23:55.301Z,48.06
2022-09-20T17:26:06.503Z,48.34
2022-09-20T17:28:08.110Z,48.28
2022-09-20T17:30:10.882Z,48.38
2022-09-20T17:32:12.691Z,48.41
2022-09-20T17:34:15.464Z,48.52
2022-09-20T17:36:21.472Z,48.80
2022-09-20T17:38:23.208Z,48.87
2022-09-20T17:40:24.879Z,48.96
2022-09-20T17:42:28.384Z,48.96
2022-09-20T17:44:30.022Z,48.79
2022-09-20T17:46:32.765Z,49.07
2022-09-20T17:48:34.742Z,49.04
2022-09-20T17:50:36.617Z,49.27
2022-09-20T17:52:38.659Z,49.28
2022-09-20T17:54:40.188Z,49.44
2022-09-20T17:56:45.099Z,49.56
2022-09-20T17:58:46.763Z,49.55
2022-09-20T18:00:49.140Z,49.52
2022-09-20T18:02:50.755Z,49.50
2022-09-20T18:04:52.587Z,49.66
2022-09-20T18:06:57.826Z,49.42
2022-09-20T18:09:02.544Z,49.77
2022-09-20T18:11:04.855Z,49.76
2022-09-20T18:13:06.389Z,49.88
2022-09-20T18:15:08.563Z,49.96
2022-09-20T18:17:10.372Z,50.01
2022-09-20T18:19:13.128Z,50.12
2022-09-20T18:21:17.234Z,50.05
2022-09-20T18:23:18.793Z,50.13
2022-09-20T18:25:20.419Z,50.38
2022-09-20T18:27:22.255Z,50.17
2022-09-20T18:29:24.816Z,50.27
2022-09-20T18:31:34.694Z,50.50
2022-09-20T18:33:37.289Z,50.46
2022-09-20T18:35:42.280Z,50.40
2022-09-20T18:37:46.479Z,50.70
2022-09-20T18:39:51.004Z,50.79
2022-09-20T18:41:53.592Z,50.86
2022-09-20T18:43:56.097Z,50.82
2022-09-20T18:46:02.790Z,50.90
2022-09-20T18:48:19.413Z,50.96
2022-09-20T18:50:28.625Z,51.00
2022-09-20T18:52:30.167Z,50.98
2022-09-20T18:54:33.565Z,51.04
2022-09-20T18:56:36.660Z,51.10
2022-09-20T18:58:39.979Z,51.23
2022-09-20T19:00:42.015Z,51.34
2022-09-20T19:03:13.058Z,51.43
2022-09-20T19:05:29.061Z,51.37
2022-09-20T19:07:42.512Z,51.55
2022-09-20T19:10:05.621Z,51.52
2022-09-20T19:12:34.295Z,51.55
2022-09-20T19:14:53.828Z,51.59
2022-09-20T19:17:01.305Z,51.79
2022-09-20T19:19:18.774Z,51.65
2022-09-20T19:21:52.757Z,51.79
2022-09-20T19:24:07.684Z,52.00
2022-09-20T19:26:24.854Z,51.87
2022-09-20T19:28:26.811Z,52.04
2022-09-20T19:30:28.751Z,51.96
2022-09-20T19:32:34.529Z,52.00
2022-09-20T19:34:38.934Z,51.98
2022-09-20T19:36:54.892Z,52.28
2022-09-20T19:39:07.738Z,52.37
2022-09-20T19:41:30.307Z,52.50
2022-09-20T19:43:59.543Z,52.49
2022-09-20T19:46:31.364Z,52.29
2022-09-20T19:48:47.146Z,52.68
2022-09-20T19:50:52.728Z,52.23
2022-09-20T19:52:58.315Z,52.15
2022-09-20T19:55:02.787Z,51.98
2022-09-20T19:57:13.212Z,52.20
2022-09-20T19:59:17.825Z,52.26
2022-09-20T20:01:22.839Z,52.41
2022-09-20T20:03:28.502Z,52.26
2022-09-20T20:05:30.824Z,52.42
2022-09-20T20:07:39.070Z,52.49
2022-09-20T20:10:02.488Z,52.51
2022-09-20T20:13:00.206Z,52.69
2022-09-20T20:15:29.895Z,52.54
2022-09-20T20:17:48.545Z,52.76
2022-09-20T20:20:00.097Z,52.79
2022-09-20T20:22:23.103Z,52.88
2022-09-20T20:24:35.416Z,52.80
2022-09-20T20:26:43.065Z,52.88
2022-09-20T20:28:44.852Z,52.75
2022-09-20T20:30:49.499Z,52.83
2022-09-20T20:32:57.989Z,52.87
2022-09-20T20:35:02.979Z,52.90
2022-09-20T20:37:05.070Z,52.93
2022-09-20T20:39:07.063Z,52.65
2022-09-20T20:41:15.352Z,52.93
2022-09-20T20:43:20.096Z,52.70
2022-09-20T20:45:22.031Z,52.81
2022-09-20T20:47:23.456Z,52.91
2022-09-20T20:49:30.928Z,52.99
2022-09-20T20:51:33.266Z,52.80
2022-09-20T20:53:37.362Z,52.99
2022-09-20T20:55:41.308Z,52.97
2022-09-20T20:57:45.340Z,52.91
2022-09-20T20:59:46.885Z,52.79
2022-09-20T21:01:48.611Z,53.02
2022-09-20T21:03:52.549Z,53.00
2022-09-20T21:05:54.127Z,53.21
2022-09-20T21:07:57.982Z,53.29
2022-09-20T21:09:59.768Z,53.07
2022-09-20T21:12:02.504Z,53.17
2022-09-20T21:14:07.097Z,53.15
2022-09-20T21:16:17.073Z,53.20
2022-09-20T21:18:18.740Z,53.25
2022-09-20T21:20:21.706Z,53.39
2022-09-20T21:22:23.311Z,53.29
2022-09-20T21:24:24.807Z,53.28
2022-09-20T21:26:28.323Z,53.28
2022-09-20T21:28:30.804Z,53.32
2022-09-20T21:30:32.533Z,53.40
2022-09-20T21:32:34.561Z,53.34
2022-09-20T21:34:36.168Z,53.39
2022-09-20T21:36:45.176Z,53.47
2022-09-20T21:38:55.948Z,53.49
2022-09-20T21:41:04.918Z,53.63
2022-09-20T21:43:06.671Z,53.75
2022-09-20T21:45:11.034Z,53.72
2022-09-20T21:47:18.831Z,53.55
2022-09-20T21:49:20.460Z,53.53
2022-09-20T21:51:25.430Z,53.57
2022-09-20T21:53:27.147Z,53.70
2022-09-20T21:55:28.732Z,53.89
2022-09-20T21:57:30.349Z,53.75
2022-09-20T21:59:31.997Z,53.99
2022-09-20T22:01:37.967Z,53.88
2022-09-20T22:03:51.760Z,53.83
2022-09-20T22:05:54.278Z,53.94
2022-09-20T22:07:58.382Z,54.08
2022-09-20T22:09:59.975Z,53.94
2022-09-20T22:12:01.698Z,54.12
2022-09-20T22:14:03.508Z,54.07
2022-09-20T22:16:08.177Z,54.11
2022-09-20T22:18:09.710Z,54.10
2022-09-20T22:20:12.251Z,54.34
2022-09-20T22:22:13.867Z,54.38
2022-09-20T22:24:16.599Z,54.35
2022-09-20T22:26:21.542Z,54.42
2022-09-20T22:28:23.361Z,54.53
2022-09-20T22:30:24.952Z,54.64
2022-09-20T22:32:26.454Z,54.52
2022-09-20T22:34:27.933Z,54.75
2022-09-20T22:36:32.533Z,54.81
2022-09-20T22:38:34.235Z,54.85
2022-09-20T22:40:35.887Z,54.81
2022-09-20T22:42:37.436Z,54.89
2022-09-20T22:44:39.088Z,55.07
2022-09-20T22:46:40.853Z,54.90
2022-09-20T22:48:42.999Z,55.12
2022-09-20T22:50:44.842Z,55.12
2022-09-20T22:52:46.323Z,55.13
2022-09-20T22:54:48.995Z,54.96
2022-09-20T22:56:53.210Z,55.06
2022-09-20T22:59:00.013Z,55.08
2022-09-20T23:01:14.965Z,55.13
2022-09-20T23:03:17.754Z,55.01
2022-09-20T23:05:19.334Z,55.04
2022-09-20T23:07:21.221Z,55.40
2022-09-20T23:09:25.597Z,54.97
2022-09-20T23:11:28.662Z,55.03
2022-09-20T23:13:30.439Z,54.96
2022-09-20T23:15:32.240Z,55.14
2022-09-20T23:17:33.862Z,55.06
2022-09-20T23:19:35.319Z,54.99
2022-09-20T23:21:38.999Z,55.17
2022-09-20T23:23:44.884Z,55.10
2022-09-20T23:25:51.629Z,55.25
2022-09-20T23:27:54.387Z,54.97
2022-09-20T23:29:56.053Z,55.11
2022-09-20T23:31:57.703Z,54.97
2022-09-20T23:34:00.775Z,55.03
2022-09-20T23:36:08.398Z,55.33
2022-09-20T23:38:09.942Z,55.04
2022-09-20T23:40:11.948Z,54.99
2022-09-20T23:42:13.608Z,55.02
2022-09-20T23:44:15.300Z,55.06
2022-09-20T23:46:19.092Z,55.08
2022-09-20T23:48:20.609Z,55.20
2022-09-20T23:50:22.309Z,55.12
2022-09-20T23:52:23.953Z,55.16
2022-09-20T23:54:28.152Z,55.08
2022-09-20T23:56:30.104Z,55.19
2022-09-20T23:58:32.462Z,55.14
